Aqua, Pennsylvania
Current Conditions -  °F | °C
As of 8:53 AM on Thursday 18 Dec 2014 (Local Time) from KHGR Reporting Station
Overcast Overcast  
Wind Chill: 24°   Ceiling: 3200
Heat Index: 33°   Visibility: 10mi
Dew Point: 21°   Wind: 13mph
Humidity: 61%   Direction: 290°WNW
Pressure: 30.14"   Gusts: NA
Location:  39.9438°N, 77.6827°W
Report Text: KHGR 181353Z 29011KT 10SM OVC032 01/M06 A3014 RMK AO2 SLP221 T00061061
Loading
Personal Weather Stations






























Interactive Weather Map New forecast layout! Learn more

10-Day Weather Forecast

Advertisements
Track Severe Weather on mobile